< < Back
Terminal Aerodrome Forecast


Current Version              Previous Versions:   1  2  3  4  5  6  7  8  9  

Terminal Aerodrome Forecast

771
FTUS42 KJAX 202300
TAFSSI
TAF
KSSI 202320Z 2100/2124 15007KT P6SM BKN050 BKN250
     FM210300 13004KT P6SM SCT035 BKN045 BKN250
      TEMPO 2103/2107 BKN030
     FM210700 00000KT P6SM SCT020 BKN040
      TEMPO 2107/2111 5SM BR BKN015
     FM211500 31006KT P6SM SCT045 SCT250
     FM212000 29004KT P6SM SCT050=



Latest METAR

056
SAUS70 KWBC 210200 RRN
MTRSSI
METAR KSSI 210153Z AUTO 15003KT 10SM CLR 22/19 A2999 RMK AO2 SLP156
T02170189


USA.gov is the U.S. government's official web portal to all federal, state and local government web resources and services.